createdAt,value
2023-09-30T00:00:10.249Z,100939.19
2023-09-30T00:02:37.285Z,100954.78
2023-09-30T00:05:05.150Z,100948.72
2023-09-30T00:07:32.693Z,100948.75
2023-09-30T00:10:00.702Z,100947.91
2023-09-30T00:12:28.131Z,100955.72
2023-09-30T00:14:55.249Z,100957.44
2023-09-30T00:17:22.156Z,100956.56
2023-09-30T00:19:48.894Z,100956.56
2023-09-30T00:22:15.579Z,100953.09
2023-09-30T00:24:42.233Z,100941.81
2023-09-30T00:27:09.092Z,100939.22
2023-09-30T00:29:36.616Z,100940.97
2023-09-30T00:32:03.817Z,100942.69
2023-09-30T00:34:34.280Z,100954.84
2023-09-30T00:37:01.205Z,100949.63
2023-09-30T00:39:32.022Z,100960.91
2023-09-30T00:42:04.543Z,100947.91
2023-09-30T00:44:32.178Z,100945.28
2023-09-30T00:46:59.179Z,100947.91
2023-09-30T00:49:26.798Z,100952.25
2023-09-30T00:51:55.893Z,100953.97
2023-09-30T00:54:27.681Z,100959.19
2023-09-30T00:57:00.787Z,100960.06
2023-09-30T00:59:27.933Z,100958.31
2023-09-30T01:01:58.581Z,100959.19
2023-09-30T01:04:27.359Z,100958.31
2023-09-30T01:06:54.433Z,100961.78
2023-09-30T01:09:21.851Z,100963.53
2023-09-30T01:11:49.100Z,100953.97
2023-09-30T01:14:28.842Z,100945.28
2023-09-30T01:16:56.110Z,100945.28
2023-09-30T01:19:26.193Z,100935.72
2023-09-30T01:22:00.780Z,100936.56
2023-09-30T01:24:28.146Z,100950.47
2023-09-30T01:26:55.204Z,100956.53
2023-09-30T01:29:23.210Z,100938.31
2023-09-30T01:31:51.037Z,100933.97
2023-09-30T01:34:18.277Z,100920.94
2023-09-30T01:36:45.151Z,100929.63
2023-09-30T01:39:12.659Z,100943.50
2023-09-30T01:41:40.138Z,100953.91
2023-09-30T01:44:07.520Z,100940.91
2023-09-30T01:46:34.816Z,100931.38
2023-09-30T01:49:01.542Z,100920.06
2023-09-30T01:51:29.162Z,100913.13
2023-09-30T01:53:56.371Z,100921.81
2023-09-30T01:56:23.474Z,100932.22
2023-09-30T01:58:50.160Z,100912.25
2023-09-30T02:01:16.925Z,100922.69
2023-09-30T02:03:43.958Z,100914.00
2023-09-30T02:06:11.519Z,100913.13
2023-09-30T02:08:38.291Z,100914.84
2023-09-30T02:11:06.499Z,100915.69
2023-09-30T02:13:36.321Z,100909.63
2023-09-30T02:16:03.442Z,100913.09
2023-09-30T02:18:33.734Z,100922.63
2023-09-30T02:21:01.052Z,100907.00
2023-09-30T02:23:27.798Z,100912.22
2023-09-30T02:25:54.431Z,100915.69
2023-09-30T02:28:21.078Z,100921.75
2023-09-30T02:30:47.760Z,100920.88
2023-09-30T02:33:14.534Z,100907.84
2023-09-30T02:35:46.644Z,100900.03
2023-09-30T02:38:17.255Z,100906.09
2023-09-30T02:40:47.551Z,100906.13
2023-09-30T02:43:14.817Z,100912.19
2023-09-30T02:45:41.551Z,100912.16
2023-09-30T02:48:09.726Z,100902.63
2023-09-30T02:50:36.581Z,100908.69
2023-09-30T02:53:03.375Z,100907.81
2023-09-30T02:55:30.101Z,100913.91
2023-09-30T02:57:56.992Z,100905.22
2023-09-30T03:00:27.724Z,100908.69
2023-09-30T03:05:35.488Z,100905.16
2023-09-30T03:08:02.362Z,100900.81
2023-09-30T03:10:29.136Z,100912.94
2023-09-30T03:12:56.171Z,100927.66
2023-09-30T03:15:24.632Z,100915.50
2023-09-30T03:17:53.790Z,100919.84
2023-09-30T03:20:21.822Z,100924.13
2023-09-30T03:22:49.315Z,100911.97
2023-09-30T03:25:18.953Z,100923.22
2023-09-30T03:27:49.272Z,100930.16
2023-09-30T03:30:17.291Z,100927.53
2023-09-30T03:32:44.742Z,100908.47
2023-09-30T03:35:16.209Z,100896.34
2023-09-30T03:37:43.013Z,100893.75
2023-09-30T03:40:14.789Z,100888.53
2023-09-30T03:42:43.856Z,100893.75
2023-09-30T03:45:11.819Z,100889.41
2023-09-30T03:47:39.340Z,100898.09
2023-09-30T03:50:06.682Z,100900.69
2023-09-30T03:52:35.553Z,100924.97
2023-09-30T03:55:06.338Z,100927.59
2023-09-30T03:57:35.097Z,100930.19
2023-09-30T04:00:02.148Z,100942.31
2023-09-30T04:02:28.896Z,100933.66
2023-09-30T04:04:57.163Z,100932.78
2023-09-30T04:07:28.399Z,100919.78
2023-09-30T04:09:56.639Z,100915.44
2023-09-30T04:12:27.106Z,100921.50
2023-09-30T04:14:54.173Z,100925.81
2023-09-30T04:17:20.830Z,100928.41
2023-09-30T04:19:47.485Z,100924.94
2023-09-30T04:22:14.225Z,100917.13
2023-09-30T04:24:40.960Z,100915.38
2023-09-30T04:27:08.832Z,100914.53
2023-09-30T04:29:35.896Z,100907.59
2023-09-30T04:32:02.644Z,100906.72
2023-09-30T04:34:29.320Z,100904.09
2023-09-30T04:36:56.006Z,100909.28
2023-09-30T04:39:22.737Z,100911.00
2023-09-30T04:41:49.481Z,100903.19
2023-09-30T04:44:16.294Z,100889.31
2023-09-30T04:46:47.185Z,100886.72
2023-09-30T04:49:17.171Z,100897.09
2023-09-30T04:51:43.901Z,100896.22
2023-09-30T04:54:11.722Z,100895.34
2023-09-30T04:56:40.051Z,100885.81
2023-09-30T04:59:06.770Z,100885.81
2023-09-30T05:01:33.448Z,100883.19
2023-09-30T05:04:00.490Z,100877.13
2023-09-30T05:06:28.022Z,100891.00
2023-09-30T05:08:56.550Z,100885.78
2023-09-30T05:11:23.335Z,100880.56
2023-09-30T05:13:50.326Z,100882.31
2023-09-30T05:16:17.626Z,100882.31
2023-09-30T05:18:44.734Z,100884.91
2023-09-30T05:21:11.506Z,100893.56
2023-09-30T05:23:39.608Z,100891.81
2023-09-30T05:26:06.260Z,100899.63
2023-09-30T05:28:33.516Z,100894.41
2023-09-30T05:31:00.336Z,100903.91
2023-09-30T05:33:29.041Z,100909.91
2023-09-30T05:35:56.084Z,100908.16
2023-09-30T05:38:24.314Z,100904.69
2023-09-30T05:40:51.227Z,100913.34
2023-09-30T05:43:17.941Z,100915.06
2023-09-30T05:45:50.839Z,100931.50
2023-09-30T05:48:18.090Z,100930.63
2023-09-30T05:50:45.121Z,100930.63
2023-09-30T05:53:11.926Z,100930.59
2023-09-30T05:55:39.342Z,100918.47
2023-09-30T05:58:06.781Z,100900.28
2023-09-30T06:00:36.568Z,100900.28
2023-09-30T06:03:07.563Z,100907.16
2023-09-30T06:05:35.133Z,100911.47
2023-09-30T06:08:04.682Z,100905.41
2023-09-30T06:10:32.165Z,100914.94
2023-09-30T06:12:59.818Z,100939.16
2023-09-30T06:15:30.341Z,100944.34
2023-09-30T06:17:58.090Z,100936.56
2023-09-30T06:20:28.271Z,100946.97
2023-09-30T06:22:55.433Z,100960.78
2023-09-30T06:25:24.793Z,100944.34
2023-09-30T06:27:51.732Z,100931.34
2023-09-30T06:30:20.729Z,100920.97
2023-09-30T06:32:48.252Z,100908.00
2023-09-30T06:35:15.146Z,100922.69
2023-09-30T06:37:42.647Z,100931.31
2023-09-30T06:40:12.812Z,100932.19
2023-09-30T06:42:41.064Z,100952.13
2023-09-30T06:45:09.454Z,100940.91
2023-09-30T06:47:37.795Z,100947.03
2023-09-30T06:50:10.475Z,100939.25
2023-09-30T06:52:39.327Z,100934.09
2023-09-30T06:55:10.136Z,100941.06
2023-09-30T06:57:38.971Z,100941.16
2023-09-30T07:00:10.769Z,100938.59
2023-09-30T07:02:37.820Z,100938.66
2023-09-30T07:05:12.664Z,100938.69
2023-09-30T07:07:46.639Z,100948.28
2023-09-30T07:10:15.721Z,100950.97
2023-09-30T07:12:43.310Z,100929.38
2023-09-30T07:15:10.585Z,100919.91
2023-09-30T07:17:38.123Z,100916.47
2023-09-30T07:20:06.630Z,100921.72
2023-09-30T07:22:52.133Z,100928.69
2023-09-30T07:25:23.839Z,100927.81
2023-09-30T07:27:50.672Z,100930.47
2023-09-30T07:30:18.759Z,100935.69
2023-09-30T07:32:46.750Z,100943.53
2023-09-30T07:35:16.353Z,100936.63
2023-09-30T07:37:43.746Z,100934.03
2023-09-30T07:40:14.399Z,100935.75
2023-09-30T07:42:41.310Z,100938.38
2023-09-30T07:45:09.275Z,100943.59
2023-09-30T07:47:36.089Z,100934.91
2023-09-30T07:50:07.932Z,100943.63
2023-09-30T07:52:34.676Z,100931.47
2023-09-30T07:55:01.701Z,100928.84
2023-09-30T07:57:28.936Z,100934.91
2023-09-30T07:59:56.820Z,100944.47
2023-09-30T08:02:23.939Z,100934.03
2023-09-30T08:04:50.608Z,100938.34
2023-09-30T08:07:17.601Z,100951.38
2023-09-30T08:09:44.703Z,100951.41
2023-09-30T08:12:11.447Z,100956.59
2023-09-30T08:14:38.105Z,100958.34
2023-09-30T08:17:04.847Z,100957.44
2023-09-30T08:19:31.570Z,100956.56
2023-09-30T08:21:58.573Z,100957.41
2023-09-30T08:24:25.246Z,100967.81
2023-09-30T08:26:52.847Z,100963.44
2023-09-30T08:29:19.721Z,100961.72
2023-09-30T08:31:46.677Z,100959.09
2023-09-30T08:34:15.771Z,100952.13
2023-09-30T08:36:43.075Z,100953.00
2023-09-30T08:39:11.507Z,100937.34
2023-09-30T08:41:38.184Z,100937.34
2023-09-30T08:44:05.748Z,100952.13
2023-09-30T08:46:36.087Z,100952.97
2023-09-30T08:49:04.778Z,100959.00
2023-09-30T08:51:33.019Z,100948.47
2023-09-30T08:54:05.039Z,100939.66
2023-09-30T08:56:35.995Z,100939.59
2023-09-30T08:59:04.600Z,100929.03
2023-09-30T09:01:32.637Z,100914.13
2023-09-30T09:03:59.913Z,100921.88
2023-09-30T09:06:27.538Z,100907.91
2023-09-30T09:08:55.226Z,100910.50
2023-09-30T09:11:24.877Z,100922.66
2023-09-30T09:13:57.365Z,100931.34
2023-09-30T09:16:25.099Z,100930.38
2023-09-30T09:18:52.449Z,100931.19
2023-09-30T09:21:27.643Z,100935.44
2023-09-30T09:23:55.215Z,100934.53
2023-09-30T09:26:29.222Z,100937.16
2023-09-30T09:29:01.780Z,100945.84
2023-09-30T09:31:30.827Z,100949.31
2023-09-30T09:34:00.653Z,100948.50
2023-09-30T09:36:41.919Z,100949.31
2023-09-30T09:39:09.219Z,100958.81
2023-09-30T09:41:52.854Z,100953.53
2023-09-30T09:44:25.190Z,100953.53
2023-09-30T09:46:52.507Z,100956.13
2023-09-30T09:49:21.272Z,100954.44
2023-09-30T09:51:49.635Z,100938.78
2023-09-30T09:54:18.036Z,100950.13
2023-09-30T09:56:47.771Z,100943.13
2023-09-30T09:59:15.451Z,100931.78
2023-09-30T10:01:43.540Z,100926.53
2023-09-30T10:04:12.795Z,100929.16
2023-09-30T10:06:42.711Z,100923.00
2023-09-30T10:09:12.907Z,100909.00
2023-09-30T10:11:41.224Z,100902.06
2023-09-30T10:14:14.194Z,100891.59
2023-09-30T10:16:41.561Z,100886.34
2023-09-30T10:19:15.442Z,100872.41
2023-09-30T10:22:28.755Z,100875.00
2023-09-30T10:24:58.120Z,100875.81
2023-09-30T10:27:33.708Z,100875.72
2023-09-30T10:30:11.281Z,100885.16
2023-09-30T10:32:57.253Z,100879.72
2023-09-30T10:35:32.976Z,100891.84
2023-09-30T10:38:22.874Z,100885.66
2023-09-30T10:40:52.027Z,100883.03
2023-09-30T10:43:32.463Z,100883.97
2023-09-30T10:46:00.263Z,100876.16
2023-09-30T10:48:36.468Z,100870.03
2023-09-30T10:51:24.388Z,100873.53
2023-09-30T10:53:53.441Z,100877.94
2023-09-30T10:56:21.504Z,100870.97
2023-09-30T10:58:50.534Z,100860.44
2023-09-30T11:01:25.033Z,100865.59
2023-09-30T11:04:00.670Z,100871.69
2023-09-30T11:06:28.138Z,100869.03
2023-09-30T11:08:57.655Z,100856.81
2023-09-30T11:11:44.894Z,100855.88
2023-09-30T11:14:18.472Z,100860.16
2023-09-30T11:16:46.115Z,100856.38
2023-09-30T11:19:14.210Z,100847.34
2023-09-30T11:21:41.494Z,100854.03
2023-09-30T11:24:09.232Z,100851.19
2023-09-30T11:26:38.467Z,100843.13
2023-09-30T11:29:14.744Z,100828.09
2023-09-30T11:31:48.194Z,100823.53
2023-09-30T11:34:17.348Z,100828.66
2023-09-30T11:36:54.591Z,100818.06
2023-09-30T11:39:26.630Z,100823.25
2023-09-30T11:41:53.908Z,100827.59
2023-09-30T11:44:21.523Z,100833.84
2023-09-30T11:47:02.411Z,100823.69
2023-09-30T11:49:37.272Z,100817.56
2023-09-30T11:52:08.463Z,100826.22
2023-09-30T11:54:42.494Z,100823.72
2023-09-30T11:57:16.445Z,100811.66
2023-09-30T11:59:46.438Z,100812.66
2023-09-30T12:02:16.338Z,100817.22
2023-09-30T12:04:44.905Z,100822.59
2023-09-30T12:07:12.519Z,100819.25
2023-09-30T12:09:41.003Z,100820.16
2023-09-30T12:12:15.946Z,100813.19
2023-09-30T12:14:43.164Z,100809.66
2023-09-30T12:17:13.994Z,100818.28
2023-09-30T12:19:42.669Z,100823.47
2023-09-30T12:22:11.514Z,100811.13
2023-09-30T12:24:39.058Z,100817.88
2023-09-30T12:27:05.935Z,100825.69
2023-09-30T12:29:33.604Z,100832.03
2023-09-30T12:32:00.434Z,100835.69
2023-09-30T12:34:28.583Z,100841.97
2023-09-30T12:36:59.097Z,100831.59
2023-09-30T12:39:28.210Z,100810.66
2023-09-30T12:41:55.501Z,100805.50
2023-09-30T12:44:24.460Z,100800.38
2023-09-30T12:46:52.303Z,100796.88
2023-09-30T12:49:19.948Z,100798.63
2023-09-30T12:51:47.426Z,100787.31
2023-09-30T12:54:15.982Z,100787.28
2023-09-30T12:56:43.256Z,100777.63
2023-09-30T12:59:09.910Z,100763.44
2023-09-30T13:01:37.192Z,100756.31
2023-09-30T13:04:04.651Z,100759.59
2023-09-30T13:06:33.956Z,100750.75
2023-09-30T13:09:01.036Z,100748.97
2023-09-30T13:11:28.590Z,100755.97
2023-09-30T13:13:55.740Z,100750.75
2023-09-30T13:16:23.406Z,100733.44
2023-09-30T13:18:51.329Z,100735.19
2023-09-30T13:21:18.200Z,100731.69
2023-09-30T13:23:44.905Z,100734.41
2023-09-30T13:26:11.557Z,100741.53
2023-09-30T13:28:38.273Z,100731.94
2023-09-30T13:31:05.066Z,100726.75
2023-09-30T13:33:31.873Z,100722.41
2023-09-30T13:35:59.572Z,100718.97
2023-09-30T13:38:26.324Z,100715.44
2023-09-30T13:40:53.259Z,100699.00
2023-09-30T13:43:20.475Z,100703.47
2023-09-30T13:45:47.291Z,100711.44
2023-09-30T13:48:14.055Z,100713.28
2023-09-30T13:50:40.835Z,100714.19
2023-09-30T13:53:08.368Z,100711.59
2023-09-30T13:55:39.383Z,100706.31
2023-09-30T13:58:06.644Z,100691.47
2023-09-30T14:00:33.510Z,100677.56
2023-09-30T14:03:01.544Z,100674.91
2023-09-30T14:05:28.752Z,100662.56
2023-09-30T14:07:56.505Z,100655.47
2023-09-30T14:10:25.374Z,100652.72
2023-09-30T14:12:52.105Z,100649.09
2023-09-30T14:15:19.064Z,100637.63
2023-09-30T14:17:46.511Z,100624.47
2023-09-30T14:20:13.647Z,100626.19
2023-09-30T14:22:40.521Z,100630.53
2023-09-30T14:25:08.850Z,100619.19
2023-09-30T14:27:36.618Z,100625.47
2023-09-30T14:30:08.853Z,100605.41
2023-09-30T14:32:36.120Z,100584.44
2023-09-30T14:35:06.748Z,100573.03
2023-09-30T14:37:34.645Z,100560.56
2023-09-30T14:40:01.737Z,100549.91
2023-09-30T14:42:29.563Z,100546.16
2023-09-30T14:44:58.123Z,100548.59
2023-09-30T14:47:25.029Z,100546.75
2023-09-30T14:49:52.080Z,100545.91
2023-09-30T14:52:19.125Z,100544.19
2023-09-30T14:54:46.147Z,100548.66
2023-09-30T14:57:15.170Z,100544.25
2023-09-30T14:59:41.951Z,100543.38
2023-09-30T15:02:12.418Z,100541.69
2023-09-30T15:04:39.274Z,100536.56
2023-09-30T15:07:07.220Z,100535.03
2023-09-30T15:09:34.876Z,100544.66
2023-09-30T15:12:01.709Z,100531.56
2023-09-30T15:14:28.831Z,100536.03
2023-09-30T15:16:55.957Z,100527.31
2023-09-30T15:19:23.614Z,100517.88
2023-09-30T15:21:50.926Z,100523.03
2023-09-30T15:24:17.665Z,100524.81
2023-09-30T15:26:44.520Z,100531.91
2023-09-30T15:29:11.385Z,100527.59
2023-09-30T15:31:40.006Z,100512.69
2023-09-30T15:34:07.291Z,100506.66
2023-09-30T15:36:34.317Z,100502.31
2023-09-30T15:39:02.413Z,100506.72
2023-09-30T15:41:29.333Z,100512.91
2023-09-30T15:44:01.415Z,100508.63
2023-09-30T15:46:28.458Z,100506.22
2023-09-30T15:48:55.689Z,100519.34
2023-09-30T15:51:22.719Z,100501.97
2023-09-30T15:53:49.432Z,100509.00
2023-09-30T15:56:16.091Z,100503.81
2023-09-30T15:58:43.049Z,100496.00
2023-09-30T16:01:13.978Z,100488.13
2023-09-30T16:03:43.561Z,100487.34
2023-09-30T16:06:11.059Z,100477.78
2023-09-30T16:08:38.185Z,100464.66
2023-09-30T16:11:05.268Z,100465.56
2023-09-30T16:13:31.919Z,100462.09
2023-09-30T16:15:58.639Z,100454.22
2023-09-30T16:18:26.372Z,100467.25
2023-09-30T16:20:53.129Z,100446.31
2023-09-30T16:23:19.950Z,100444.66
2023-09-30T16:25:46.852Z,100444.69
2023-09-30T16:28:14.005Z,100443.78
2023-09-30T16:30:41.278Z,100437.69
2023-09-30T16:33:08.186Z,100441.09
2023-09-30T16:35:35.787Z,100446.25
2023-09-30T16:38:02.719Z,100451.44
2023-09-30T16:40:29.471Z,100440.91
2023-09-30T16:42:57.328Z,100435.72
2023-09-30T16:45:26.404Z,100449.75
2023-09-30T16:47:53.499Z,100446.19
2023-09-30T16:50:20.419Z,100453.97
2023-09-30T16:52:47.366Z,100450.56
2023-09-30T16:55:14.102Z,100446.31
2023-09-30T16:57:42.063Z,100449.97
2023-09-30T17:00:09.446Z,100449.25
2023-09-30T17:02:36.982Z,100437.09
2023-09-30T17:05:04.429Z,100437.94
2023-09-30T17:07:31.320Z,100444.13
2023-09-30T17:09:58.158Z,100458.16
2023-09-30T17:12:26.313Z,100445.91
2023-09-30T17:14:55.723Z,100440.78
2023-09-30T17:17:23.300Z,100453.00
2023-09-30T17:19:49.976Z,100439.97
2023-09-30T17:22:18.834Z,100450.53
2023-09-30T17:24:45.875Z,100448.97
2023-09-30T17:27:12.777Z,100442.84
2023-09-30T17:29:40.647Z,100439.38
2023-09-30T17:32:08.341Z,100443.78
2023-09-30T17:34:38.822Z,100449.91
2023-09-30T17:37:06.712Z,100439.31
2023-09-30T17:39:34.193Z,100431.47
2023-09-30T17:42:01.911Z,100436.66
2023-09-30T17:44:29.054Z,100438.44
2023-09-30T17:46:56.246Z,100429.78
2023-09-30T17:49:23.110Z,100436.78
2023-09-30T17:51:50.288Z,100446.34
2023-09-30T17:54:17.474Z,100448.91
2023-09-30T17:56:44.305Z,100443.69
2023-09-30T17:59:13.169Z,100452.34
2023-09-30T18:01:40.132Z,100447.16
2023-09-30T18:04:08.404Z,100448.94
2023-09-30T18:06:35.916Z,100442.91
2023-09-30T18:09:02.756Z,100455.22
2023-09-30T18:11:29.449Z,100452.66
2023-09-30T18:13:56.653Z,100448.34
2023-09-30T18:16:24.376Z,100455.34
2023-09-30T18:18:51.302Z,100449.25
2023-09-30T18:21:18.475Z,100435.31
2023-09-30T18:23:45.418Z,100438.88
2023-09-30T18:26:12.559Z,100440.66
2023-09-30T18:28:39.302Z,100447.66
2023-09-30T18:31:06.186Z,100443.28
2023-09-30T18:33:32.979Z,100447.59
2023-09-30T18:36:00.147Z,100446.75
2023-09-30T18:38:27.212Z,100445.84
2023-09-30T18:40:54.631Z,100435.44
2023-09-30T18:43:22.605Z,100443.44
2023-09-30T18:45:50.412Z,100444.34
2023-09-30T18:48:17.795Z,100445.25
2023-09-30T18:50:47.387Z,100436.59
2023-09-30T18:53:14.691Z,100442.69
2023-09-30T18:55:43.752Z,100432.28
2023-09-30T18:58:11.168Z,100436.66
2023-09-30T19:00:39.914Z,100431.47
2023-09-30T19:03:07.639Z,100432.38
2023-09-30T19:05:38.986Z,100426.25
2023-09-30T19:08:06.546Z,100429.78
2023-09-30T19:10:34.509Z,100420.19
2023-09-30T19:13:02.142Z,100428.91
2023-09-30T19:15:29.117Z,100421.06
2023-09-30T19:17:56.472Z,100421.03
2023-09-30T19:20:26.330Z,100410.63
2023-09-30T19:22:55.718Z,100419.28
2023-09-30T19:25:23.439Z,100417.56
2023-09-30T19:27:51.278Z,100420.13
2023-09-30T19:30:18.272Z,100422.69
2023-09-30T19:32:44.970Z,100420.91
2023-09-30T19:35:12.879Z,100412.25
2023-09-30T19:37:39.869Z,100419.19
2023-09-30T19:40:07.345Z,100425.28
2023-09-30T19:42:34.176Z,100428.75
2023-09-30T19:45:01.355Z,100416.50
2023-09-30T19:47:28.610Z,100412.97
2023-09-30T19:49:55.923Z,100420.81
2023-09-30T19:52:29.244Z,100417.19
2023-09-30T19:54:56.435Z,100420.72
2023-09-30T19:57:23.476Z,100423.31
2023-09-30T19:59:50.155Z,100416.38
2023-09-30T20:02:18.230Z,100414.56
2023-09-30T20:04:45.327Z,100411.03
2023-09-30T20:07:13.551Z,100407.50
2023-09-30T20:09:42.941Z,100419.69
2023-09-30T20:12:11.060Z,100414.47
2023-09-30T20:14:37.802Z,100413.53
2023-09-30T20:17:04.669Z,100407.41
2023-09-30T20:19:32.189Z,100408.28
2023-09-30T20:21:59.147Z,100409.13
2023-09-30T20:24:25.799Z,100420.47
2023-09-30T20:26:52.791Z,100419.56
2023-09-30T20:29:19.422Z,100422.16
2023-09-30T20:31:46.141Z,100413.44
2023-09-30T20:34:14.988Z,100413.47
2023-09-30T20:36:41.927Z,100410.78
2023-09-30T20:39:11.686Z,100413.38
2023-09-30T20:41:41.980Z,100408.09
2023-09-30T20:44:08.705Z,100414.16
2023-09-30T20:46:36.035Z,100403.66
2023-09-30T20:49:05.897Z,100404.47
2023-09-30T20:51:33.063Z,100407.97
2023-09-30T20:54:00.170Z,100405.31
2023-09-30T20:56:27.489Z,100396.56
2023-09-30T20:58:54.963Z,100396.56
2023-09-30T21:01:22.257Z,100399.19
2023-09-30T21:03:50.426Z,100400.03
2023-09-30T21:06:17.318Z,100379.94
2023-09-30T21:08:44.280Z,100382.50
2023-09-30T21:11:11.012Z,100382.50
2023-09-30T21:13:37.878Z,100380.75
2023-09-30T21:16:05.327Z,100384.22
2023-09-30T21:18:34.108Z,100382.50
2023-09-30T21:21:01.449Z,100379.84
2023-09-30T21:23:29.440Z,100382.44
2023-09-30T21:25:57.104Z,100374.53
2023-09-30T21:28:24.336Z,100368.44
2023-09-30T21:30:51.316Z,100369.28
2023-09-30T21:33:18.604Z,100371.88
2023-09-30T21:35:54.951Z,100367.50
2023-09-30T21:38:21.686Z,100363.97
2023-09-30T21:40:48.410Z,100365.72
2023-09-30T21:43:15.051Z,100366.56
2023-09-30T21:45:41.798Z,100356.09
2023-09-30T21:48:08.684Z,100370.91
2023-09-30T21:50:35.395Z,100361.25
2023-09-30T21:53:02.141Z,100364.75
2023-09-30T21:55:30.555Z,100364.75
2023-09-30T21:57:57.277Z,100362.94
2023-09-30T22:00:39.814Z,100371.66
2023-09-30T22:03:10.475Z,100366.34
2023-09-30T22:05:47.379Z,100375.94
2023-09-30T22:08:13.953Z,100360.16
2023-09-30T22:10:41.252Z,100368.88
2023-09-30T22:13:08.632Z,100380.22
2023-09-30T22:15:35.420Z,100370.59
2023-09-30T22:18:04.094Z,100373.19
2023-09-30T22:20:33.555Z,100364.47
2023-09-30T22:23:00.664Z,100367.06
2023-09-30T22:25:27.564Z,100366.16
2023-09-30T22:27:54.378Z,100362.63
2023-09-30T22:30:21.455Z,100355.63
2023-09-30T22:32:48.186Z,100355.63
2023-09-30T22:35:18.777Z,100347.75
2023-09-30T22:37:45.416Z,100359.03
2023-09-30T22:40:12.312Z,100352.91
2023-09-30T22:42:39.420Z,100353.72
2023-09-30T22:45:07.235Z,100342.38
2023-09-30T22:47:50.625Z,100337.94
2023-09-30T22:50:20.602Z,100342.31
2023-09-30T22:52:48.660Z,100346.56
2023-09-30T22:55:23.193Z,100334.34
2023-09-30T22:57:51.732Z,100341.31
2023-09-30T23:00:21.069Z,100338.66
2023-09-30T23:02:48.838Z,100333.41
2023-09-30T23:05:17.249Z,100327.28
2023-09-30T23:07:46.059Z,100334.22
2023-09-30T23:10:18.120Z,100336.81
2023-09-30T23:12:45.054Z,100331.53
2023-09-30T23:15:18.825Z,100331.50
2023-09-30T23:17:47.256Z,100340.22
2023-09-30T23:20:16.306Z,100338.41
2023-09-30T23:22:48.358Z,100324.41
2023-09-30T23:25:20.005Z,100331.47
2023-09-30T23:27:47.708Z,100336.63
2023-09-30T23:30:18.843Z,100338.31
2023-09-30T23:32:49.059Z,100337.41
2023-09-30T23:35:21.777Z,100326.88
2023-09-30T23:37:53.923Z,100326.88
2023-09-30T23:40:23.982Z,100330.31
2023-09-30T23:42:54.969Z,100332.91
2023-09-30T23:45:23.125Z,100328.53
2023-09-30T23:47:52.275Z,100334.59
2023-09-30T23:50:20.515Z,100338.06
2023-09-30T23:52:52.752Z,100338.06
2023-09-30T23:55:23.591Z,100336.31
2023-09-30T23:57:50.717Z,100335.38
